GBI weather

Auxiliary Airfield
Grand Bahama, High Rock, Bahamas

Public forecast

Using degrees Celsius for public forecast. Weather courtesy of forecast.io.

METAR (pilot weather report)

Report is more than 2 hours old.

Closest report is Grand Bahama International Airport, 18.6 nm (34.4 km) WSW. Retrieved 2019/09/20 23:00 UTC (3 hours ago):

MYGF 202300Z 10017KT 9999 FEW020CB SCT250 27/21 A3004

TAF (pilot weather forecast)

Forecast is more than 12 hours old.

Closest forecast is Grand Bahama International Airport, 18.6 nm (34.4 km) WSW. Retrieved 2019/09/20 00:25 UTC (1 day ago):

TAF MYGF 202245Z 2100/2124 09020KT 9999 FEW018CB SCT022 PROB40 TEMPO 2118/2124 8000 SHRA FEW015CB BKN018 BKN220